Latest Weather Observations for Maroochydore

IDQ60901

Issued at 6:21 pm EST Tuesday 28 July 2015 (issued every 10 minutes, with the page automatically refreshed every 10 minutes)

About weather observations | Map of Brisbane area stations | Latest observations for Brisbane area | Other Formats
Station Details ID: 040861 Name: SUNSHINE COAST AIRPORT Lat: -26.60 Lon: 153.09 Height: 3.3 m
Data from the previous 72 hours. | See also: Recent months at Maroochydore
Date/Time
EST
Tmp

°C
App
Tmp
°C
Dew
Point
°C
Rel
Hum
%
Delta-T

°C
Wind Press
QNH
hPa
Press
MSL
hPa
Rain
since
9 am
mm
Dir
 
Spd
km/h
Gust
km/h
Spd
kts
Gust
kts
28/05:30pm 16.8 12.9 8.5 58 4.2 SE 19 24 10 13 1028.2 - 0.0
28/05:00pm 16.9 13.2 9.3 61 3.9 SE 19 26 10 14 1028.2 - 0.0
28/04:30pm 17.5 13.7 9.9 61 4.0 SSE 20 30 11 16 1028.0 - 0.0
28/04:00pm 17.6 13.8 9.8 60 4.1 SE 20 30 11 16 1027.9 - 0.0
28/03:30pm 18.4 13.8 9.7 57 4.6 SSE 24 32 13 17 1027.6 - 0.0
28/03:00pm 19.1 14.3 10.4 57 4.6 SSE 26 37 14 20 1027.5 1027.5 0.0
28/02:30pm 18.4 14.0 10.5 60 4.2 SSE 24 33 13 18 1027.5 - 0.0
28/02:00pm 18.7 14.3 10.3 58 4.5 SSE 24 33 13 18 1027.7 - 0.0
28/01:30pm 19.4 15.2 11.2 59 4.5 SSE 24 33 13 18 1027.8 - 0.0
28/01:00pm 19.5 14.1 11.0 58 4.6 SSE 30 37 16 20 1028.0 - 0.0
28/12:30pm 19.3 14.3 10.8 58 4.6 SSE 28 37 15 20 1028.3 - 0.0
28/12:00pm 18.4 14.0 10.5 60 4.2 SSE 24 32 13 17 1028.5 1028.5 0.0
28/11:30am 19.6 14.5 10.6 56 4.9 SSE 28 39 15 21 1028.7 - 0.0
28/11:00am 19.6 14.5 10.6 56 4.9 S 28 35 15 19 1029.0 - 0.0
28/10:30am 19.6 15.5 10.0 54 5.1 S 22 32 12 17 1029.2 - 0.0
28/10:00am 18.3 13.3 9.4 56 4.7 S 26 33 14 18 1029.3 - 0.0
28/09:00am 17.3 12.0 8.4 56 4.5 S 26 35 14 19 1029.0 1029.0 0.0
28/08:00am 15.6 10.4 7.4 58 4.1 S 24 32 13 17 1028.5 - 0.0
28/07:30am 14.8 10.4 7.4 61 3.6 SSW 20 26 11 14 1028.3 - 0.0
28/07:00am 14.2 9.9 7.0 62 3.5 SSW 19 24 10 13 1027.9 - 0.0
28/06:30am 14.2 9.9 6.8 61 3.6 SSW 19 24 10 13 1027.4 - 0.0
28/05:30am 14.0 9.4 6.6 61 3.6 SSW 20 28 11 15 1026.7 - 0.0
28/05:00am 13.9 8.9 6.3 60 3.6 SSW 22 32 12 17 1026.4 - 0.0
28/04:30am 12.8 9.4 5.9 63 3.2 SW 13 19 7 10 1026.3 - 0.0
28/04:00am 12.8 9.2 5.0 59 3.6 SW 13 17 7 9 1026.0 - 0.0
28/03:30am 12.3 8.3 5.0 61 3.4 SW 15 20 8 11 1025.9 - 0.0
28/03:00am 12.9 8.1 4.8 58 3.7 SW 19 24 10 13 1025.7 1025.7 0.0
28/02:30am 12.3 8.3 4.8 60 3.4 SW 15 19 8 10 1025.6 - 0.0
28/02:00am 11.7 8.9 5.1 64 3.0 SW 9 13 5 7 1025.7 - 0.0
28/01:30am 12.2 8.6 5.1 62 3.3 SW 13 17 7 9 1025.7 - 0.0
28/01:00am 12.3 8.7 5.0 61 3.4 SW 13 17 7 9 1026.0 - 0.0
28/12:30am 12.6 8.3 5.3 61 3.4 SW 17 20 9 11 1025.8 - 0.0
 
Date/Time
EST
Tmp

°C
App
Tmp
°C
Dew
Point
°C
Rel
Hum
%
Delta-T

°C
Wind Press
QNH
hPa
Press
MSL
hPa
Rain
since
9 am
mm
Dir
 
Spd
km/h
Gust
km/h
Spd
kts
Gust
kts
27/11:30pm 13.3 9.9 5.9 61 3.5 WSW 13 19 7 10 1026.0 - 0.0
27/11:00pm 13.7 9.6 6.1 60 3.6 SW 17 20 9 11 1026.0 - 0.0
27/10:30pm 14.6 10.2 6.7 59 3.8 SSW 19 26 10 14 1026.1 - 0.0
27/10:00pm 13.8 11.4 7.1 64 3.3 SSW 9 13 5 7 1026.1 - 0.0
27/09:30pm 14.1 13.1 7.4 64 3.3 SSW 2 9 1 5 1025.8 - 0.0
27/09:00pm 14.6 11.7 8.3 66 3.1 SSW 13 17 7 9 1025.3 1025.3 0.0
27/08:30pm 13.9 11.8 8.3 69 2.8 WSW 9 11 5 6 1025.0 - 0.0
27/08:00pm 13.8 11.8 8.8 72 2.5 WSW 9 11 5 6 1024.7 - 0.0
27/07:30pm 13.7 11.9 9.6 76 2.1 WSW 9 9 5 5 1024.5 - 0.0
27/07:00pm 14.5 12.8 9.9 74 2.4 WSW 9 11 5 6 1024.3 - 0.0
27/06:30pm 14.2 12.9 9.2 72 2.5 W 6 7 3 4 1023.9 - 0.0
27/06:00pm 16.7 14.3 8.7 59 4.1 WSW 11 15 6 8 1023.4 1023.4 0.0
27/05:30pm 17.6 15.5 8.2 54 4.8 WSW 9 13 5 7 1022.9 - 0.0
27/05:00pm 18.7 16.5 7.8 49 5.6 SW 9 13 5 7 1022.4 - 0.0
27/04:30pm 20.4 17.3 7.1 42 6.8 SW 13 17 7 9 1022.1 - 0.0
27/04:00pm 21.2 18.6 6.3 38 7.5 WSW 9 13 5 7 1021.7 - 0.0
27/03:30pm 21.7 18.0 6.4 37 7.8 SW 15 22 8 12 1021.5 - 0.0
27/03:00pm 22.1 17.8 5.1 33 8.4 SSW 17 24 9 13 1021.3 1021.3 0.0
27/02:30pm 23.1 19.6 7.2 36 8.2 SSW 15 24 8 13 1021.4 - 0.0
27/02:00pm 23.1 19.4 6.4 34 8.5 SSW 15 24 8 13 1021.4 - 0.0
27/01:30pm 23.7 20.1 6.9 34 8.7 WSW 15 24 8 13 1021.6 - 0.0
27/01:00pm 24.0 20.6 7.6 35 8.6 WSW 15 20 8 11 1021.8 - 0.0
27/12:30pm 23.3 19.3 6.6 34 8.6 SSW 17 26 9 14 1022.1 - 0.0
27/12:00pm 22.6 18.3 6.8 36 8.1 S 19 24 10 13 1022.6 1022.6 0.0
27/11:30am 22.1 16.6 5.9 35 8.2 SSW 24 35 13 19 1023.1 - 0.0
27/11:00am 21.8 16.4 6.5 37 7.8 SW 24 32 13 17 1023.4 - 0.0
27/10:30am 20.9 14.2 5.7 37 7.6 SW 30 41 16 22 1023.9 - 0.0
27/10:00am 20.3 13.9 7.0 42 6.8 SW 30 43 16 23 1023.9 - 0.0
27/09:30am 19.7 15.1 6.4 42 6.6 WSW 20 35 11 19 1024.2 - 0.0
27/09:00am 19.0 15.6 9.2 53 5.1 SW 17 28 9 15 1024.4 1024.4 0.0
27/08:30am 18.1 14.7 9.2 56 4.6 SW 17 26 9 14 1024.3 - 0.0
27/08:00am 17.1 15.5 11.6 70 3.0 SW 11 17 6 9 1024.1 - 0.0
27/07:30am 14.4 15.5 13.6 95 0.4 CALM 0 0 0 0 1024.0 - 0.0
27/07:00am 12.6 13.1 11.5 93 0.6 CALM 0 0 0 0 1023.7 - 0.0
27/06:30am 13.2 13.8 11.8 91 0.7 CALM 0 0 0 0 1023.2 - 0.0
27/06:00am 14.3 15.2 12.9 91 0.8 CALM 0 0 0 0 1022.9 1022.9 0.0
27/05:30am 14.9 16.0 13.6 92 0.7 CALM 0 0 0 0 1022.5 - 0.0
27/05:00am 14.9 15.7 13.6 92 0.7 SSW 2 7 1 4 1022.0 - 0.0
27/04:30am 14.9 14.6 13.4 91 0.8 WNW 7 7 4 4 1021.8 - 0.0
27/04:00am 15.5 15.3 13.7 89 1.0 WSW 7 11 4 6 1021.6 - 0.0
27/03:30am 16.0 15.7 14.5 91 0.9 WSW 9 13 5 7 1021.4 - 0.0
27/03:00am 16.4 15.9 14.9 91 0.9 SW 11 13 6 7 1021.4 1021.4 0.0
27/02:30am 16.8 16.1 15.5 92 0.8 SW 13 15 7 8 1021.2 - 0.0
27/02:00am 17.5 17.1 16.2 92 0.8 SSW 13 17 7 9 1021.2 - 0.0
27/01:30am 17.3 17.3 16.3 94 0.6 SW 11 15 6 8 1021.3 - 0.0
27/01:00am 17.4 17.2 16.6 95 0.5 SSW 13 17 7 9 1021.3 - 0.0
27/12:30am 17.1 17.2 16.6 97 0.3 SW 11 15 6 8 1021.2 - 0.0
27/12:00am 16.8 18.9 16.3 97 0.3 CALM 0 0 0 0 1021.2 1021.2 0.0
 
Date/Time
EST
Tmp

°C
App
Tmp
°C
Dew
Point
°C
Rel
Hum
%
Delta-T

°C
Wind Press
QNH
hPa
Press
MSL
hPa
Rain
since
9 am
mm
Dir
 
Spd
km/h
Gust
km/h
Spd
kts
Gust
kts
26/11:30pm 16.7 18.7 16.1 96 0.4 CALM 0 0 0 0 1021.3 - 0.0
26/11:00pm 16.7 18.0 16.1 96 0.4 W 4 7 2 4 1021.3 - 0.0
26/10:59pm 16.7 18.0 16.1 96 0.4 W 4 7 2 4 1021.3 - 0.0
26/10:30pm 16.3 18.1 15.5 95 0.5 CALM 0 4 0 2 1021.3 - 0.0
26/10:23pm 16.7 18.3 15.9 95 0.5 W 2 6 1 3 1021.3 - 0.0
26/10:00pm 17.5 18.5 16.9 96 0.4 SW 7 11 4 6 1021.4 - 0.0
26/09:41pm 17.4 18.4 16.8 96 0.4 SW 7 9 4 5 1021.2 - 0.0
26/09:30pm 16.9 17.6 16.1 95 0.5 WSW 7 7 4 4 1021.1 - 0.0
26/09:22pm 16.5 17.2 15.7 95 0.5 SW 6 7 3 4 1021.1 - 0.0
26/09:09pm 16.9 17.6 16.1 95 0.5 SW 7 9 4 5 1021.0 - 0.0
26/09:00pm 16.6 18.1 15.8 95 0.5 WSW 2 7 1 4 1021.0 1021.0 0.0
26/08:30pm 17.1 19.1 16.1 94 0.6 CALM 0 0 0 0 1020.8 - 0.0
26/08:27pm 17.4 19.6 16.4 94 0.6 CALM 0 0 0 0 1020.8 - 0.0
26/08:00pm 18.0 19.1 17.0 94 0.6 SW 7 7 4 4 1020.6 - 0.0
26/07:30pm 18.4 18.9 17.4 94 0.6 SW 11 13 6 7 1020.5 - 0.0
26/07:00pm 18.8 19.7 17.6 93 0.7 SSW 9 13 5 7 1020.0 - 0.0
26/06:30pm 19.4 20.9 18.1 92 0.8 S 7 9 4 5 1019.4 - 0.0
26/06:00pm 19.9 21.5 18.2 90 1.1 ESE 7 9 4 5 1018.9 1018.9 0.0
26/05:30pm 20.5 22.2 18.4 88 1.3 SSE 7 9 4 5 1018.6 - 0.0
26/05:00pm 20.8 21.8 18.6 87 1.4 SE 11 13 6 7 1018.1 - 0.0
26/04:30pm 21.3 22.4 18.1 82 2.0 E 9 11 5 6 1017.6 - 0.0
26/04:00pm 21.7 22.8 17.9 79 2.4 E 9 13 5 7 1017.7 - 0.0
26/03:30pm 22.4 23.2 18.2 77 2.6 ESE 11 15 6 8 1017.2 - 0.0
26/03:00pm 22.2 22.2 18.2 78 2.5 E 15 20 8 11 1016.9 1016.9 0.0
26/02:30pm 22.7 21.1 18.3 76 2.8 NNE 24 30 13 16 1016.6 - 0.0
26/02:00pm 23.7 22.0 18.1 71 3.5 NNE 24 30 13 16 1016.8 - 0.0
26/01:30pm 24.0 22.5 18.6 72 3.4 NNE 24 30 13 16 1017.1 - 0.0
26/01:00pm 23.7 21.6 17.2 67 4.0 NNE 24 30 13 16 1017.4 - 0.0
26/12:30pm 24.5 22.4 17.2 63 4.5 NE 24 30 13 16 1017.8 - 0.0
26/12:00pm 25.1 25.1 18.1 65 4.4 NE 15 20 8 11 1018.7 1018.7 0.0
26/11:30am 26.6 26.2 16.2 52 6.4 NNW 13 20 7 11 1019.2 - 0.0
26/11:00am 25.9 25.6 16.5 56 5.8 NW 13 20 7 11 1019.7 - 0.0
26/10:30am 25.4 24.5 16.8 59 5.3 NNW 17 22 9 12 1020.3 - 0.0
26/10:00am 24.5 24.5 17.2 63 4.5 NNW 13 20 7 11 1020.8 - 0.0
26/09:30am 22.8 23.9 17.9 74 3.1 NNW 9 13 5 7 1021.2 - 0.0
26/09:00am 19.9 19.9 17.3 85 1.6 NNE 13 17 7 9 1021.2 1021.2 0.0
26/08:30am 17.5 19.3 16.5 94 0.6 NW 2 7 1 4 1021.3 - 0.0
26/08:00am 16.6 17.3 16.0 96 0.4 WNW 7 9 4 5 1021.3 - 0.0
26/07:30am 15.0 16.4 14.5 97 0.3 CALM 0 0 0 0 1020.9 - 0.0
26/07:00am 13.2 14.0 12.7 97 0.3 CALM 0 0 0 0 1020.7 - 0.0
26/06:30am 12.6 13.3 12.1 97 0.3 CALM 0 0 0 0 1020.7 - 0.0
26/06:00am 12.8 13.1 12.3 97 0.3 W 2 7 1 4 1020.5 1020.5 0.0
26/05:30am 12.9 11.9 12.4 97 0.3 WNW 9 9 5 5 1020.4 - 0.0
26/05:00am 12.3 11.2 11.8 97 0.3 WNW 9 11 5 6 1020.3 - 0.0
26/04:45am 12.2 11.0 11.7 97 0.3 W 9 11 5 6 1020.3 - 0.0
26/04:30am 12.2 12.7 11.7 97 0.3 CALM 0 0 0 0 1020.2 - 0.0
26/04:13am 12.3 12.9 11.8 97 0.3 CALM 0 0 0 0 1020.1 - 0.0
26/04:00am 12.9 13.7 12.4 97 0.3 CALM 0 6 0 3 1020.1 - 0.0
26/03:46am 12.7 12.2 12.2 97 0.3 WNW 6 6 3 3 1020.3 - 0.0
26/03:30am 12.4 11.7 11.9 97 0.3 WNW 7 7 4 4 1020.4 - 0.0
26/03:14am 12.5 12.0 12.0 97 0.3 WNW 6 7 3 4 1020.7 - 0.0
26/03:00am 12.8 12.2 12.3 97 0.3 WNW 7 9 4 5 1020.8 1020.8 0.0
26/02:30am 12.8 11.8 12.3 97 0.3 W 9 11 5 6 1020.9 - 0.0
26/02:00am 13.1 12.6 12.6 97 0.3 W 7 9 4 5 1020.8 - 0.0
26/01:30am 12.6 11.9 12.0 96 0.3 W 7 9 4 5 1021.0 - 0.0
26/01:16am 12.6 12.1 12.0 96 0.3 W 6 7 3 4 1021.1 - 0.0
26/01:12am 12.6 12.1 12.0 96 0.3 W 6 7 3 4 1021.2 - 0.0
26/01:00am 12.8 12.2 12.2 96 0.3 W 7 9 4 5 1021.1 - 0.0
26/12:30am 12.9 12.3 12.3 96 0.3 W 7 9 4 5 1021.3 - 0.0
26/12:00am 13.2 12.7 12.6 96 0.3 W 7 7 4 4 1021.6 1021.6 0.0
 
Date/Time
EST
Tmp

°C
App
Tmp
°C
Dew
Point
°C
Rel
Hum
%
Delta-T

°C
Wind Press
QNH
hPa
Press
MSL
hPa
Rain
since
9 am
mm
Dir
 
Spd
km/h
Gust
km/h
Spd
kts
Gust
kts
25/11:30pm 13.1 12.6 12.5 96 0.3 SW 7 9 4 5 1021.6 - 0.0
25/11:00pm 13.4 13.1 12.8 96 0.3 WSW 6 7 3 4 1021.8 - 0.0
25/10:51pm 13.5 13.1 12.9 96 0.3 WSW 7 7 4 4 1021.9 - 0.0
25/10:40pm 14.3 14.3 13.7 96 0.3 SW 6 7 3 4 1022.0 - 0.0
25/10:30pm 14.0 13.7 13.4 96 0.3 SW 7 9 4 5 1022.1 - 0.0
25/10:02pm 14.3 14.3 13.7 96 0.3 WSW 6 6 3 3 1022.1 - 0.0
25/10:00pm 14.5 14.6 13.9 96 0.3 WSW 6 6 3 3 1022.1 - 0.0
25/09:58pm 14.4 14.5 13.8 96 0.3 WSW 6 7 3 4 1022.0 - 0.0
25/09:30pm 14.2 13.5 13.2 94 0.6 W 9 11 5 6 1021.8 - 0.0
25/09:22pm 13.9 13.7 13.0 94 0.5 WSW 6 11 3 6 1021.7 - 0.0
25/09:00pm 14.5 15.7 13.7 95 0.4 CALM 0 0 0 0 1021.5 1021.5 0.0
25/08:54pm 15.1 16.5 14.3 95 0.5 CALM 0 0 0 0 1021.5 - 0.0
25/08:30pm 14.7 15.9 13.7 94 0.6 CALM 0 0 0 0 1021.4 - 0.0
25/08:01pm 14.3 15.2 12.9 91 0.8 CALM 0 6 0 3 1021.5 - 0.0
25/08:00pm 14.3 14.8 12.9 91 0.8 SW 2 6 1 3 1021.5 - 0.0
25/07:30pm 16.1 16.6 15.0 93 0.6 WSW 6 7 3 4 1021.3 - 0.0
25/07:00pm 16.6 18.2 15.0 90 0.9 CALM 0 4 0 2 1020.9 - 0.0
25/06:30pm 18.2 19.0 16.4 89 1.1 SE 7 9 4 5 1020.7 - 0.0

Latest Capital City Observations: Canberra | Sydney | Melbourne | Brisbane | Adelaide | Perth | Hobart | Darwin

Other Formats:

Comma delimited format used in spreadsheet applications
http://www.bom.gov.au/fwo/IDQ60901/IDQ60901.94569.axf

JavaScript Object Notation format (JSON) in row-major order
http://www.bom.gov.au/fwo/IDQ60901/IDQ60901.94569.json